Lammy — PBRE — position and weather

sailwx.info

Track history (hours):
 
Tides and Currents Weather Stations Pressure Air Temp Water Temp Dewpoint Dewpoint Depression Visibility Wind Speed Wind Dir Waves Ship Positions

Lammy

Last reported at 2017-Jan-24 05:32 UTC. Time now 2017-Jan-24 07:03 UTC.
Position N 55°14' E 013°05'.

Length 95 m; draft 5.2 m.

Type: Cargo ship. MMSI: 245391000.

Date/timePositionNaut miles runAvg speedWind from/ knotsBaromVisibWave heightAir tempDewpointWater temp
2017-Jan-24 05:32N 55°14' E 013°05'1212.4
2017-Jan-24 04:33N 55°17' E 012°45'1010.3
2017-Jan-24 03:33N 55°27' E 012°40'1110.9
2017-Jan-24 02:33N 55°38' E 012°42'1212.1
2017-Jan-24 01:33N 55°50' E 012°41'1212.1
2017-Jan-24 00:33N 56°02' E 012°38'1110.8
2017-Jan-23 23:33N 56°10' E 012°27'4912.1
2017-Jan-23 19:28N 56°54' E 011°45'1112.3
2017-Jan-23 18:33N 57°04' E 011°36'1212.2
2017-Jan-23 17:33N 57°15' E 011°27'1312.7
2017-Jan-23 16:33N 57°27' E 011°17'1312.9
2017-Jan-23 15:33N 57°35' E 010°58'1312.9
2017-Jan-23 14:33N 57°42' E 010°38'1 1.5
2017-Jan-23 13:33N 57°43' E 010°39'7 7.1
2017-Jan-23 12:31N 57°45' E 010°26'42812.6
2017-Jan-22 02:28N 53°33' E 000°15'1111.6
2017-Jan-22 01:34N 53°36' W 000°03'1110.9
2017-Jan-22 00:33N 53°44' W 000°16'4 4.0
2017-Jan-21 23:33N 53°43' W 000°22'0 0.0
2017-Jan-21 22:33N 53°43' W 000°22'0 0.0
2017-Jan-21 21:33N 53°43' W 000°22'0 0.0
2017-Jan-21 20:33N 53°43' W 000°22'0 0.0
2017-Jan-21 19:33N 53°43' W 000°22'0 0.0
2017-Jan-21 18:33N 53°43' W 000°22'0 0.0
2017-Jan-21 17:33N 53°43' W 000°22'0 0.0
2017-Jan-21 16:34N 53°43' W 000°22'0 0.0
2017-Jan-21 15:33N 53°43' W 000°22'0 0.0
2017-Jan-21 14:33N 53°43' W 000°22'0 0.0
2017-Jan-21 13:34N 53°43' W 000°22'0 0.0
2017-Jan-21 12:33N 53°43' W 000°22'0 0.0
2017-Jan-21 11:33N 53°43' W 000°22'0 0.0
2017-Jan-21 10:33N 53°43' W 000°22'0 0.0
2017-Jan-21 09:33N 53°43' W 000°22'0 0.0
2017-Jan-21 08:34N 53°43' W 000°22'0 0.0
2017-Jan-21 07:33N 53°43' W 000°22'0 0.0
2017-Jan-21 06:33N 53°43' W 000°22'0 0.0
2017-Jan-21 05:33N 53°43' W 000°22'0 0.0
2017-Jan-21 04:33N 53°43' W 000°22'0 0.0
2017-Jan-21 03:33N 53°43' W 000°22'0 0.0
2017-Jan-21 02:33N 53°43' W 000°22'0 0.0
2017-Jan-21 01:34N 53°43' W 000°22'0 0.0
2017-Jan-21 00:33N 53°43' W 000°22'0 0.0
2017-Jan-20 23:34N 53°43' W 000°22'0 0.0
2017-Jan-20 22:33N 53°43' W 000°22'0 0.0
2017-Jan-20 21:33N 53°43' W 000°22'0 0.0
2017-Jan-20 20:33N 53°43' W 000°22'0 0.0
2017-Jan-20 19:33N 53°43' W 000°22'0 0.0
2017-Jan-20 18:33N 53°43' W 000°22'0 0.0
2017-Jan-20 17:33N 53°43' W 000°22'0 0.0
2017-Jan-20 16:33N 53°43' W 000°22'0 0.0
2017-Jan-20 15:33N 53°43' W 000°22'0 0.0
2017-Jan-20 14:34N 53°43' W 000°22'0 0.0
2017-Jan-20 13:33N 53°43' W 000°22'0 0.0
2017-Jan-20 12:33N 53°43' W 000°22'0 0.0
2017-Jan-20 11:33N 53°43' W 000°22'0 0.0
2017-Jan-20 10:33N 53°43' W 000°22'0 0.0
2017-Jan-20 09:33N 53°43' W 000°22'0 0.0
2017-Jan-20 08:33N 53°43' W 000°22'0 0.0
2017-Jan-20 07:33N 53°43' W 000°22'0 0.0
2017-Jan-20 06:33N 53°43' W 000°22'0 0.0
2017-Jan-20 05:34N 53°43' W 000°22'0 0.0
2017-Jan-20 04:33N 53°43' W 000°22'0 0.0
2017-Jan-20 03:33N 53°43' W 000°22'0 0.0
2017-Jan-20 02:33N 53°43' W 000°22'0 0.0
2017-Jan-20 01:33N 53°43' W 000°22'0 0.0
2017-Jan-20 00:33N 53°43' W 000°22'0 0.0
2017-Jan-19 23:33N 53°43' W 000°22'0 0.0
2017-Jan-19 22:33N 53°43' W 000°22'0 0.0
2017-Jan-19 21:33N 53°43' W 000°22'0 0.2
2017-Jan-19 20:33N 53°43' W 000°22'5 5.3
2017-Jan-19 19:33N 53°41' W 000°13'4 3.8
2017-Jan-19 18:33N 53°38' W 000°11'0 0.2
2017-Jan-19 17:33N 53°38' W 000°11'0 0.0
2017-Jan-19 16:33N 53°38' W 000°11'0 0.0
2017-Jan-19 15:27N 53°38' W 000°11'0 0.0
2017-Jan-19 14:33N 53°38' W 000°11'0 0.0
2017-Jan-19 13:33N 53°38' W 000°11'0 0.0
2017-Jan-19 12:33N 53°38' W 000°11'0 0.0
2017-Jan-19 11:33N 53°38' W 000°11'0 0.0
2017-Jan-19 10:29N 53°38' W 000°11'0 0.0
2017-Jan-19 09:33N 53°38' W 000°11'0 0.0
2017-Jan-19 08:29N 53°38' W 000°11'0 0.0
2017-Jan-19 07:30N 53°38' W 000°11'0 0.0
2017-Jan-19 06:33N 53°38' W 000°11'0 0.0
2017-Jan-19 05:33N 53°38' W 000°11'0 0.0
2017-Jan-19 04:30N 53°38' W 000°11'0 0.0
2017-Jan-19 03:33N 53°38' W 000°11'0 0.0
2017-Jan-19 02:33N 53°38' W 000°11'0 0.0
2017-Jan-19 01:33N 53°38' W 000°11'0 0.0
2017-Jan-19 00:30N 53°38' W 000°11'0 0.0
2017-Jan-18 23:33N 53°38' W 000°11'0 0.0
2017-Jan-18 22:33N 53°38' W 000°11'0 0.0
2017-Jan-18 21:32N 53°38' W 000°11'0 0.0
2017-Jan-18 20:33N 53°38' W 000°11'0 0.0
2017-Jan-18 19:33N 53°38' W 000°11'0 0.0
2017-Jan-18 18:32N 53°38' W 000°11'0 0.0
2017-Jan-18 17:32N 53°38' W 000°11'0 0.0
2017-Jan-18 16:32N 53°38' W 000°11'0 0.0
2017-Jan-18 15:33N 53°38' W 000°11'0 0.0
2017-Jan-18 14:33N 53°38' W 000°11'0 0.0
2017-Jan-18 13:29N 53°38' W 000°11'0 0.0
2017-Jan-18 12:33N 53°38' W 000°11'0 0.0
2017-Jan-18 11:32N 53°38' W 000°11'0 0.0
2017-Jan-18 10:32N 53°38' W 000°11'0 0.0
2017-Jan-18 09:32N 53°38' W 000°11'0 0.0
2017-Jan-18 08:33N 53°38' W 000°11'0 0.0
2017-Jan-18 07:32N 53°38' W 000°11'0 0.0
2017-Jan-18 06:32N 53°38' W 000°11'0 0.0
2017-Jan-18 05:32N 53°38' W 000°11'0 0.0
2017-Jan-18 04:32N 53°38' W 000°11'0 0.0
2017-Jan-18 03:32N 53°38' W 000°11'0 0.0
2017-Jan-18 02:29N 53°38' W 000°11'0 0.0
2017-Jan-18 01:33N 53°38' W 000°11'0 0.0
2017-Jan-18 00:33N 53°38' W 000°11'0 0.0
2017-Jan-17 23:33N 53°38' W 000°11'0 0.0
2017-Jan-17 22:32N 53°38' W 000°11'0 0.0
2017-Jan-17 21:32N 53°38' W 000°11'0 0.0
2017-Jan-17 20:32N 53°38' W 000°11'0 0.3
2017-Jan-17 19:33N 53°38' W 000°11'2 2.4
2017-Jan-17 18:33N 53°40' W 000°13'4 4.5
2017-Jan-17 17:33N 53°44' W 000°16'1 0.6
2017-Jan-17 16:32N 53°45' W 000°16'0 0.0
2017-Jan-17 15:32N 53°45' W 000°16'0 0.0
2017-Jan-17 14:32N 53°45' W 000°16'0 0.0
2017-Jan-17 13:32N 53°45' W 000°16'0 0.0
2017-Jan-17 12:32N 53°45' W 000°16'0 0.0
2017-Jan-17 11:32N 53°45' W 000°16'0 0.0
2017-Jan-17 10:32N 53°45' W 000°16'0 0.0
2017-Jan-17 09:32N 53°45' W 000°16'0 0.0
2017-Jan-17 08:32N 53°45' W 000°16'0 0.0
2017-Jan-17 07:29N 53°45' W 000°16'0 0.0
2017-Jan-17 06:27N 53°45' W 000°16'1 0.8
2017-Jan-17 05:33N 53°44' W 000°17'1110.5
2017-Jan-17 04:33N 53°37' W 000°05'43310.3
2017-Jan-15 10:26N 57°44' E 010°25'1011.9
2017-Jan-15 09:34N 57°46' E 010°44'6 5.6
2017-Jan-15 08:33N 57°43' E 010°35'4 3.8
2017-Jan-15 07:32N 57°42' E 010°42'1212.0
2017-Jan-15 06:33N 57°35' E 011°01'1211.6
2017-Jan-15 05:33N 57°31' E 011°20'1211.7
2017-Jan-15 04:33N 57°20' E 011°30'1211.9
2017-Jan-15 03:32N 57°09' E 011°38'6212.4
2017-Jan-14 22:33N 56°13' E 012°27'1211.8
2017-Jan-14 21:33N 56°03' E 012°39'1212.1
2017-Jan-14 20:33N 55°52' E 012°45'1211.8
2017-Jan-14 19:33N 55°40' E 012°41'1010.1
2017-Jan-14 18:33N 55°30' E 012°43'1211.6
2017-Jan-14 17:33N 55°18' E 012°41'3712.0
2017-Jan-14 14:30N 55°14' E 013°45'1212.4
2017-Jan-14 13:33N 55°14' E 014°05'1111.1
2017-Jan-14 12:32N 55°19' E 014°23'1212.1
2017-Jan-14 11:32N 55°28' E 014°38'1212.1
2017-Jan-14 10:33N 55°34' E 014°56'  
Track history (hours):
 
Tides and Currents Weather Stations Pressure Air Temp Water Temp Dewpoint Dewpoint Depression Visibility Wind Speed Wind Dir Waves Ship Positions

Lammy

Last reported at 2017-Jan-24 05:32 UTC. Time now 2017-Jan-24 07:03 UTC.
Position N 55°14' E 013°05'.

Length 95 m; draft 5.2 m.

Type: Cargo ship. MMSI: 245391000.

Date/timePositionNaut miles runAvg speedWind from/ knotsBaromVisibWave heightAir tempDewpointWater temp
2017-Jan-24 05:32N 55°14' E 013°05'1212.4
2017-Jan-24 04:33N 55°17' E 012°45'1010.3
2017-Jan-24 03:33N 55°27' E 012°40'1110.9
2017-Jan-24 02:33N 55°38' E 012°42'1212.1
2017-Jan-24 01:33N 55°50' E 012°41'1212.1
2017-Jan-24 00:33N 56°02' E 012°38'1110.8
2017-Jan-23 23:33N 56°10' E 012°27'4912.1
2017-Jan-23 19:28N 56°54' E 011°45'1112.3
2017-Jan-23 18:33N 57°04' E 011°36'1212.2
2017-Jan-23 17:33N 57°15' E 011°27'1312.7
2017-Jan-23 16:33N 57°27' E 011°17'1312.9
2017-Jan-23 15:33N 57°35' E 010°58'1312.9
2017-Jan-23 14:33N 57°42' E 010°38'1 1.5
2017-Jan-23 13:33N 57°43' E 010°39'7 7.1
2017-Jan-23 12:31N 57°45' E 010°26'42812.6
2017-Jan-22 02:28N 53°33' E 000°15'1111.6
2017-Jan-22 01:34N 53°36' W 000°03'1110.9
2017-Jan-22 00:33N 53°44' W 000°16'4 4.0
2017-Jan-21 23:33N 53°43' W 000°22'0 0.0
2017-Jan-21 22:33N 53°43' W 000°22'0 0.0
2017-Jan-21 21:33N 53°43' W 000°22'0 0.0
2017-Jan-21 20:33N 53°43' W 000°22'0 0.0
2017-Jan-21 19:33N 53°43' W 000°22'0 0.0
2017-Jan-21 18:33N 53°43' W 000°22'0 0.0
2017-Jan-21 17:33N 53°43' W 000°22'0 0.0
2017-Jan-21 16:34N 53°43' W 000°22'0 0.0
2017-Jan-21 15:33N 53°43' W 000°22'0 0.0
2017-Jan-21 14:33N 53°43' W 000°22'0 0.0
2017-Jan-21 13:34N 53°43' W 000°22'0 0.0
2017-Jan-21 12:33N 53°43' W 000°22'0 0.0
2017-Jan-21 11:33N 53°43' W 000°22'0 0.0
2017-Jan-21 10:33N 53°43' W 000°22'0 0.0
2017-Jan-21 09:33N 53°43' W 000°22'0 0.0
2017-Jan-21 08:34N 53°43' W 000°22'0 0.0
2017-Jan-21 07:33N 53°43' W 000°22'0 0.0
2017-Jan-21 06:33N 53°43' W 000°22'0 0.0
2017-Jan-21 05:33N 53°43' W 000°22'0 0.0
2017-Jan-21 04:33N 53°43' W 000°22'0 0.0
2017-Jan-21 03:33N 53°43' W 000°22'0 0.0
2017-Jan-21 02:33N 53°43' W 000°22'0 0.0
2017-Jan-21 01:34N 53°43' W 000°22'0 0.0
2017-Jan-21 00:33N 53°43' W 000°22'0 0.0
2017-Jan-20 23:34N 53°43' W 000°22'0 0.0
2017-Jan-20 22:33N 53°43' W 000°22'0 0.0
2017-Jan-20 21:33N 53°43' W 000°22'0 0.0
2017-Jan-20 20:33N 53°43' W 000°22'0 0.0
2017-Jan-20 19:33N 53°43' W 000°22'0 0.0
2017-Jan-20 18:33N 53°43' W 000°22'0 0.0
2017-Jan-20 17:33N 53°43' W 000°22'0 0.0
2017-Jan-20 16:33N 53°43' W 000°22'0 0.0
2017-Jan-20 15:33N 53°43' W 000°22'0 0.0
2017-Jan-20 14:34N 53°43' W 000°22'0 0.0
2017-Jan-20 13:33N 53°43' W 000°22'0 0.0
2017-Jan-20 12:33N 53°43' W 000°22'0 0.0
2017-Jan-20 11:33N 53°43' W 000°22'0 0.0
2017-Jan-20 10:33N 53°43' W 000°22'0 0.0
2017-Jan-20 09:33N 53°43' W 000°22'0 0.0
2017-Jan-20 08:33N 53°43' W 000°22'0 0.0
2017-Jan-20 07:33N 53°43' W 000°22'0 0.0
2017-Jan-20 06:33N 53°43' W 000°22'0 0.0
2017-Jan-20 05:34N 53°43' W 000°22'0 0.0
2017-Jan-20 04:33N 53°43' W 000°22'0 0.0
2017-Jan-20 03:33N 53°43' W 000°22'0 0.0
2017-Jan-20 02:33N 53°43' W 000°22'0 0.0
2017-Jan-20 01:33N 53°43' W 000°22'0 0.0
2017-Jan-20 00:33N 53°43' W 000°22'0 0.0
2017-Jan-19 23:33N 53°43' W 000°22'0 0.0
2017-Jan-19 22:33N 53°43' W 000°22'0 0.0
2017-Jan-19 21:33N 53°43' W 000°22'0 0.2
2017-Jan-19 20:33N 53°43' W 000°22'5 5.3
2017-Jan-19 19:33N 53°41' W 000°13'4 3.8
2017-Jan-19 18:33N 53°38' W 000°11'0 0.2
2017-Jan-19 17:33N 53°38' W 000°11'0 0.0
2017-Jan-19 16:33N 53°38' W 000°11'0 0.0
2017-Jan-19 15:27N 53°38' W 000°11'0 0.0
2017-Jan-19 14:33N 53°38' W 000°11'0 0.0
2017-Jan-19 13:33N 53°38' W 000°11'0 0.0
2017-Jan-19 12:33N 53°38' W 000°11'0 0.0
2017-Jan-19 11:33N 53°38' W 000°11'0 0.0
2017-Jan-19 10:29N 53°38' W 000°11'0 0.0
2017-Jan-19 09:33N 53°38' W 000°11'0 0.0
2017-Jan-19 08:29N 53°38' W 000°11'0 0.0
2017-Jan-19 07:30N 53°38' W 000°11'0 0.0
2017-Jan-19 06:33N 53°38' W 000°11'0 0.0
2017-Jan-19 05:33N 53°38' W 000°11'0 0.0
2017-Jan-19 04:30N 53°38' W 000°11'0 0.0
2017-Jan-19 03:33N 53°38' W 000°11'0 0.0
2017-Jan-19 02:33N 53°38' W 000°11'0 0.0
2017-Jan-19 01:33N 53°38' W 000°11'0 0.0
2017-Jan-19 00:30N 53°38' W 000°11'0 0.0
2017-Jan-18 23:33N 53°38' W 000°11'0 0.0
2017-Jan-18 22:33N 53°38' W 000°11'0 0.0
2017-Jan-18 21:32N 53°38' W 000°11'0 0.0
2017-Jan-18 20:33N 53°38' W 000°11'0 0.0
2017-Jan-18 19:33N 53°38' W 000°11'0 0.0
2017-Jan-18 18:32N 53°38' W 000°11'0 0.0
2017-Jan-18 17:32N 53°38' W 000°11'0 0.0
2017-Jan-18 16:32N 53°38' W 000°11'0 0.0
2017-Jan-18 15:33N 53°38' W 000°11'0 0.0
2017-Jan-18 14:33N 53°38' W 000°11'0 0.0
2017-Jan-18 13:29N 53°38' W 000°11'0 0.0
2017-Jan-18 12:33N 53°38' W 000°11'0 0.0
2017-Jan-18 11:32N 53°38' W 000°11'0 0.0
2017-Jan-18 10:32N 53°38' W 000°11'0 0.0
2017-Jan-18 09:32N 53°38' W 000°11'0 0.0
2017-Jan-18 08:33N 53°38' W 000°11'0 0.0
2017-Jan-18 07:32N 53°38' W 000°11'0 0.0
2017-Jan-18 06:32N 53°38' W 000°11'0 0.0
2017-Jan-18 05:32N 53°38' W 000°11'0 0.0
2017-Jan-18 04:32N 53°38' W 000°11'0 0.0
2017-Jan-18 03:32N 53°38' W 000°11'0 0.0
2017-Jan-18 02:29N 53°38' W 000°11'0 0.0
2017-Jan-18 01:33N 53°38' W 000°11'0 0.0
2017-Jan-18 00:33N 53°38' W 000°11'0 0.0
2017-Jan-17 23:33N 53°38' W 000°11'0 0.0
2017-Jan-17 22:32N 53°38' W 000°11'0 0.0
2017-Jan-17 21:32N 53°38' W 000°11'0 0.0
2017-Jan-17 20:32N 53°38' W 000°11'0 0.3
2017-Jan-17 19:33N 53°38' W 000°11'2 2.4
2017-Jan-17 18:33N 53°40' W 000°13'4 4.5
2017-Jan-17 17:33N 53°44' W 000°16'1 0.6
2017-Jan-17 16:32N 53°45' W 000°16'0 0.0
2017-Jan-17 15:32N 53°45' W 000°16'0 0.0
2017-Jan-17 14:32N 53°45' W 000°16'0 0.0
2017-Jan-17 13:32N 53°45' W 000°16'0 0.0
2017-Jan-17 12:32N 53°45' W 000°16'0 0.0
2017-Jan-17 11:32N 53°45' W 000°16'0 0.0
2017-Jan-17 10:32N 53°45' W 000°16'0 0.0
2017-Jan-17 09:32N 53°45' W 000°16'0 0.0
2017-Jan-17 08:32N 53°45' W 000°16'0 0.0
2017-Jan-17 07:29N 53°45' W 000°16'0 0.0
2017-Jan-17 06:27N 53°45' W 000°16'1 0.8
2017-Jan-17 05:33N 53°44' W 000°17'1110.5
2017-Jan-17 04:33N 53°37' W 000°05'43310.3
2017-Jan-15 10:26N 57°44' E 010°25'1011.9
2017-Jan-15 09:34N 57°46' E 010°44'6 5.6
2017-Jan-15 08:33N 57°43' E 010°35'4 3.8
2017-Jan-15 07:32N 57°42' E 010°42'1212.0
2017-Jan-15 06:33N 57°35' E 011°01'1211.6
2017-Jan-15 05:33N 57°31' E 011°20'1211.7
2017-Jan-15 04:33N 57°20' E 011°30'1211.9
2017-Jan-15 03:32N 57°09' E 011°38'6212.4
2017-Jan-14 22:33N 56°13' E 012°27'1211.8
2017-Jan-14 21:33N 56°03' E 012°39'1212.1
2017-Jan-14 20:33N 55°52' E 012°45'1211.8
2017-Jan-14 19:33N 55°40' E 012°41'1010.1
2017-Jan-14 18:33N 55°30' E 012°43'1211.6
2017-Jan-14 17:33N 55°18' E 012°41'3712.0
2017-Jan-14 14:30N 55°14' E 013°45'1212.4
2017-Jan-14 13:33N 55°14' E 014°05'1111.1
2017-Jan-14 12:32N 55°19' E 014°23'1212.1
2017-Jan-14 11:32N 55°28' E 014°38'1212.1
2017-Jan-14 10:33N 55°34' E 014°56'  

Dump ship's entire track history